| time (UTC) | temp F | wind direction | speed MPH | gust MPH | rain 1hr in | rain 24hr in | rain mn in | humidity % | barometer mb |
| 20260510204503 | 84 | 290 | 5.0 | 12.0 | 0.00 | 0.00 | 0.00 | 77 | 1017.2 |
| 20260510204004 | 84 | 271 | 1.0 | 9.0 | 0.00 | 0.00 | 0.00 | 77 | 1017.2 |
| 20260510203504 | 84 | 301 | 3.0 | 12.0 | 0.00 | 0.00 | 0.00 | 76 | 1017.3 |
| 20260510203003 | 84 | 270 | 4.0 | 12.0 | 0.00 | 0.00 | 0.00 | 77 | 1017.3 |
| 20260510202504 | 85 | 282 | 5.0 | 13.0 | 0.00 | 0.00 | 0.00 | 75 | 1017.3 |
| 20260510202003 | 85 | 268 | 4.0 | 10.0 | 0.00 | 0.00 | 0.00 | 76 | 1017.2 |
| 20260510201503 | 85 | 214 | 3.0 | 9.0 | 0.00 | 0.00 | 0.00 | 76 | 1017.3 |
| 20260510201004 | 85 | 255 | 5.0 | 9.0 | 0.00 | 0.00 | 0.00 | 75 | 1017.2 |
| 20260510200504 | 85 | 263 | 6.0 | 12.0 | 0.00 | 0.00 | 0.00 | 75 | 1017.1 |
| 20260510200003 | 86 | 222 | 1.0 | 12.0 | 0.00 | 0.00 | 0.00 | 75 | 1017.2 |
| 20260510195504 | 86 | 279 | 2.0 | 9.0 | 0.00 | 0.00 | 0.00 | 75 | 1017.2 |
| 20260510195004 | 85 | 213 | 2.0 | 6.0 | 0.00 | 0.00 | 0.00 | 76 | 1017.3 |
| 20260510194504 | 85 | 255 | 3.0 | 10.0 | 0.00 | 0.00 | 0.00 | 76 | 1017.3 |
| 20260510194004 | 85 | 265 | 5.0 | 13.0 | 0.00 | 0.00 | 0.00 | 76 | 1017.4 |
| 20260510193504 | 85 | 261 | 4.0 | 12.0 | 0.00 | 0.00 | 0.00 | 76 | 1017.3 |
| 20260510193003 | 85 | 317 | 5.0 | 12.0 | 0.00 | 0.00 | 0.00 | 75 | 1017.3 |
| 20260510192504 | 85 | 262 | 3.0 | 9.0 | 0.00 | 0.00 | 0.00 | 75 | 1017.3 |
| 20260510192003 | 86 | 261 | 5.0 | 14.0 | 0.00 | 0.00 | 0.00 | 75 | 1017.4 |
| 20260510191504 | 87 | 268 | 7.0 | 14.0 | 0.00 | 0.00 | 0.00 | 72 | 1017.4 |
| 20260510191003 | 87 | 281 | 4.0 | 12.0 | 0.00 | 0.00 | 0.00 | 73 | 1017.4 |
| 20260510190503 | 87 | 258 | 2.0 | 12.0 | 0.00 | 0.00 | 0.00 | 74 | 1017.3 |
| 20260510190004 | 86 | 280 | 5.0 | 13.0 | 0.00 | 0.00 | 0.00 | 74 | 1017.4 |
| 20260510185503 | 86 | 272 | 6.0 | 12.0 | 0.00 | 0.00 | 0.00 | 74 | 1017.4 |
| 20260510185003 | 86 | 285 | 7.0 | 14.0 | 0.00 | 0.00 | 0.00 | 73 | 1017.5 |
| 20260510184503 | 86 | 275 | 6.0 | 15.0 | 0.00 | 0.00 | 0.00 | 73 | 1017.6 |
| 20260510184004 | 87 | 265 | 6.0 | 13.0 | 0.00 | 0.00 | 0.00 | 73 | 1017.4 |
| 20260510183504 | 86 | 250 | 5.0 | 10.0 | 0.00 | 0.00 | 0.00 | 74 | 1017.5 |
| 20260510183004 | 86 | 281 | 9.0 | 16.0 | 0.00 | 0.00 | 0.00 | 73 | 1017.5 |
| 20260510182503 | 87 | 249 | 6.0 | 16.0 | 0.00 | 0.00 | 0.00 | 71 | 1017.5 |
| 20260510182004 | 87 | 230 | 6.0 | 15.0 | 0.00 | 0.00 | 0.00 | 71 | 1017.6 |
| 20260510181503 | 88 | 291 | 2.0 | 13.0 | 0.00 | 0.00 | 0.00 | 69 | 1017.7 |
| 20260510181004 | 89 | 267 | 6.0 | 12.0 | 0.00 | 0.00 | 0.00 | 69 | 1017.7 |
| 20260510180504 | 89 | 225 | 2.0 | 10.0 | 0.00 | 0.00 | 0.00 | 69 | 1017.7 |
| 20260510180003 | 88 | 279 | 5.0 | 15.0 | 0.00 | 0.00 | 0.00 | 70 | 1017.7 |
| 20260510175503 | 88 | 271 | 5.0 | 12.0 | 0.00 | 0.00 | 0.00 | 70 | 1017.7 |
| 20260510175003 | 88 | 262 | 10.0 | 16.0 | 0.00 | 0.00 | 0.00 | 69 | 1017.7 |
| 20260510174503 | 89 | 258 | 8.0 | 14.0 | 0.00 | 0.00 | 0.00 | 68 | 1017.8 |
| 20260510174003 | 89 | 271 | 2.0 | 8.0 | 0.00 | 0.00 | 0.00 | 64 | 1017.8 |
| 20260510173503 | 89 | 257 | 4.0 | 12.0 | 0.00 | 0.00 | 0.00 | 63 | 1017.8 |
| 20260510173004 | 91 | 287 | 3.0 | 12.0 | 0.00 | 0.00 | 0.00 | 63 | 1017.8 |
| 20260510172503 | 91 | 257 | 2.0 | 7.0 | 0.00 | 0.00 | 0.00 | 65 | 1017.8 |
| 20260510172004 | 91 | 288 | 2.0 | 9.0 | 0.00 | 0.00 | 0.00 | 64 | 1017.8 |
| 20260510171503 | 91 | 254 | 5.0 | 12.0 | 0.00 | 0.00 | 0.00 | 60 | 1017.9 |
| 20260510171003 | 91 | 257 | 1.0 | 10.0 | 0.00 | 0.00 | 0.00 | 54 | 1017.9 |
| 20260510170503 | 91 | 237 | 5.0 | 10.0 | 0.00 | 0.00 | 0.00 | 55 | 1018.0 |
| 20260510170003 | 91 | 235 | 2.0 | 6.0 | 0.00 | 0.00 | 0.00 | 60 | 1017.9 |
| 20260510165504 | 90 | 252 | 3.0 | 10.0 | 0.00 | 0.00 | 0.00 | 56 | 1018.0 |
| 20260510165004 | 90 | 242 | 4.0 | 9.0 | 0.00 | 0.00 | 0.00 | 58 | 1018.0 |
| 20260510164503 | 90 | 264 | 4.0 | 9.0 | 0.00 | 0.00 | 0.00 | 55 | 1018.0 |
| 20260510164004 | 91 | 239 | 1.0 | 8.0 | 0.00 | 0.00 | 0.00 | 58 | 1018.0 |
| 20260510163504 | 91 | 243 | 6.0 | 10.0 | 0.00 | 0.00 | 0.00 | 55 | 1018.0 |
| 20260510163003 | 91 | 193 | 1.0 | 6.0 | 0.00 | 0.00 | 0.00 | 58 | 1017.9 |
| 20260510162503 | 91 | 263 | 2.0 | 9.0 | 0.00 | 0.00 | 0.00 | 56 | 1017.9 |
| 20260510162004 | 91 | 256 | 1.0 | 8.0 | 0.00 | 0.00 | 0.00 | 60 | 1017.9 |
| 20260510161504 | 91 | 145 | 0.0 | 6.0 | 0.00 | 0.00 | 0.00 | 63 | 1018.0 |
| 20260510161003 | 91 | 180 | 3.0 | 8.0 | 0.00 | 0.00 | 0.00 | 63 | 1018.1 |
| 20260510160503 | 91 | 122 | 1.0 | 7.0 | 0.00 | 0.00 | 0.00 | 66 | 1018.1 |
| 20260510160004 | 90 | 189 | 0.0 | 2.0 | 0.00 | 0.00 | 0.00 | 69 | 1018.1 |
| 20260510155504 | 89 | 174 | 0.0 | 3.0 | 0.00 | 0.00 | 0.00 | 68 | 1018.1 |
| 20260510155004 | 89 | 211 | 2.0 | 8.0 | 0.00 | 0.00 | 0.00 | 69 | 1018.1 |
| 20260510154503 | 88 | 173 | 0.0 | 7.0 | 0.00 | 0.00 | 0.00 | 68 | 1018.1 |
| 20260510154003 | 88 | 212 | 1.0 | 7.0 | 0.00 | 0.00 | 0.00 | 68 | 1018.2 |
| 20260510153504 | 88 | 260 | 0.0 | 7.0 | 0.00 | 0.00 | 0.00 | 68 | 1018.1 |
| 20260510153003 | 88 | 232 | 0.0 | 5.0 | 0.00 | 0.00 | 0.00 | 67 | 1018.1 |
| 20260510152503 | 88 | 283 | 2.0 | 6.0 | 0.00 | 0.00 | 0.00 | 67 | 1018.0 |
| 20260510152004 | 89 | 247 | 1.0 | 8.0 | 0.00 | 0.00 | 0.00 | 66 | 1018.0 |
| 20260510151503 | 89 | 116 | 0.0 | 7.0 | 0.00 | 0.00 | 0.00 | 67 | 1018.0 |
| 20260510151004 | 88 | 191 | 1.0 | 3.0 | 0.00 | 0.00 | 0.00 | 67 | 1018.0 |
| 20260510150504 | 88 | 123 | 2.0 | 7.0 | 0.00 | 0.00 | 0.00 | 68 | 1018.0 |
| 20260510150003 | 87 | 102 | 1.0 | 7.0 | 0.00 | 0.00 | 0.00 | 69 | 1017.9 |
| 20260510145503 | 87 | 142 | 1.0 | 6.0 | 0.00 | 0.00 | 0.00 | 70 | 1017.9 |
| 20260510145004 | 86 | 116 | 0.0 | 6.0 | 0.00 | 0.00 | 0.00 | 71 | 1017.9 |
| 20260510144504 | 86 | 116 | 1.0 | 8.0 | 0.00 | 0.00 | 0.00 | 71 | 1017.8 |
| 20260510144003 | 85 | 138 | 1.0 | 3.0 | 0.00 | 0.00 | 0.00 | 73 | 1017.9 |
| 20260510143503 | 85 | 172 | 0.0 | 5.0 | 0.00 | 0.00 | 0.00 | 74 | 1018.1 |
| 20260510143004 | 85 | 146 | 0.0 | 7.0 | 0.00 | 0.00 | 0.00 | 75 | 1018.0 |
| 20260510142503 | 84 | 201 | 0.0 | 3.0 | 0.00 | 0.00 | 0.00 | 76 | 1018.0 |
| 20260510142003 | 84 | 249 | 0.0 | 6.0 | 0.00 | 0.00 | 0.00 | 76 | 1018.1 |
| 20260510141504 | 83 | 219 | 0.0 | 3.0 | 0.00 | 0.00 | 0.00 | 78 | 1018.0 |
| 20260510141003 | 83 | 110 | 1.0 | 3.0 | 0.00 | 0.00 | 0.00 | 79 | 1018.0 |
| 20260510140503 | 83 | 142 | 1.0 | 3.0 | 0.00 | 0.00 | 0.00 | 79 | 1018.0 |
| 20260510140004 | 82 | 221 | 0.0 | 2.0 | 0.00 | 0.00 | 0.00 | 80 | 1017.9 |
| 20260510135504 | 82 | 136 | 1.0 | 7.0 | 0.00 | 0.00 | 0.00 | 80 | 1017.8 |
| 20260510135003 | 82 | 120 | 0.0 | 2.0 | 0.00 | 0.00 | 0.00 | 81 | 1017.8 |
| 20260510134505 | 81 | 122 | 1.0 | 6.0 | 0.00 | 0.00 | 0.00 | 81 | 1017.7 |
| 20260510134004 | 81 | 121 | 1.0 | 3.0 | 0.00 | 0.00 | 0.00 | 82 | 1017.7 |
| 20260510133503 | 80 | 112 | 1.0 | 3.0 | 0.00 | 0.00 | 0.00 | 82 | 1017.7 |
| 20260510133004 | 80 | 122 | 0.0 | 3.0 | 0.00 | 0.00 | 0.00 | 83 | 1017.7 |
| 20260510132504 | 80 | 107 | 0.0 | 3.0 | 0.00 | 0.00 | 0.00 | 83 | 1017.6 |
| 20260510132004 | 80 | 123 | 1.0 | 3.0 | 0.00 | 0.00 | 0.00 | 84 | 1017.7 |
| 20260510131504 | 79 | 128 | 1.0 | 3.0 | 0.00 | 0.00 | 0.00 | 85 | 1017.6 |
| 20260510131003 | 79 | 133 | 0.0 | 1.0 | 0.00 | 0.00 | 0.00 | 86 | 1017.7 |
| 20260510130503 | 78 | 131 | 1.0 | 3.0 | 0.00 | 0.00 | 0.00 | 86 | 1017.6 |
| 20260510130005 | 78 | 126 | 2.0 | 6.0 | 0.00 | 0.00 | 0.00 | 87 | 1017.5 |
| 20260510125504 | 77 | 121 | 0.0 | 3.0 | 0.00 | 0.00 | 0.00 | 87 | 1017.5 |
| 20260510125004 | 77 | 122 | 3.0 | 7.0 | 0.00 | 0.00 | 0.00 | 88 | 1017.4 |
| 20260510124503 | 77 | 115 | 1.0 | 3.0 | 0.00 | 0.00 | 0.00 | 88 | 1017.4 |
| 20260510124004 | 76 | 129 | 0.0 | 6.0 | 0.00 | 0.00 | 0.00 | 89 | 1017.4 |
| 20260510123504 | 76 | 137 | 1.0 | 6.0 | 0.00 | 0.00 | 0.00 | 90 | 1017.4 |
| 20260510123003 | 76 | 127 | 2.0 | 5.0 | 0.00 | 0.00 | 0.00 | 91 | 1017.4 |
| 20260510122504 | 75 | 113 | 1.0 | 5.0 | 0.00 | 0.00 | 0.00 | 91 | 1017.3 |
| 20260510122003 | 75 | 113 | 0.0 | 3.0 | 0.00 | 0.00 | 0.00 | 91 | 1017.2 |
| 20260510121504 | 75 | 122 | 2.0 | 3.0 | 0.00 | 0.00 | 0.00 | 91 | 1017.2 |
| 20260510121003 | 75 | 125 | 2.0 | 5.0 | 0.00 | 0.00 | 0.00 | 91 | 1017.1 |
| 20260510120503 | 74 | 120 | 1.0 | 3.0 | 0.00 | 0.00 | 0.00 | 92 | 1017.0 |
| 20260510120004 | 74 | 122 | 1.0 | 3.0 | 0.00 | 0.00 | 0.00 | 92 | 1017.0 |
| 20260510115504 | 74 | 132 | 0.0 | 0.0 | 0.00 | 0.00 | 0.00 | 92 | 1017.0 |
| 20260510115003 | 74 | 132 | 0.0 | 1.0 | 0.00 | 0.00 | 0.00 | 92 | 1017.0 |
| 20260510114503 | 74 | 132 | 0.0 | 2.0 | 0.00 | 0.00 | 0.00 | 92 | 1016.8 |
| 20260510114003 | 73 | 132 | 0.0 | 2.0 | 0.00 | 0.00 | 0.00 | 92 | 1016.8 |
| 20260510113503 | 73 | 132 | 0.0 | 1.0 | 0.00 | 0.00 | 0.00 | 91 | 1016.6 |
| 20260510113004 | 73 | 132 | 0.0 | 2.0 | 0.00 | 0.00 | 0.00 | 91 | 1016.5 |
| 20260510112503 | 73 | 132 | 0.0 | 0.0 | 0.00 | 0.00 | 0.00 | 91 | 1016.5 |
| 20260510112003 | 73 | 132 | 0.0 | 0.0 | 0.00 | 0.00 | 0.00 | 91 | 1016.5 |
| 20260510111503 | 73 | 132 | 0.0 | 0.0 | 0.00 | 0.00 | 0.00 | 91 | 1016.4 |
| 20260510111003 | 73 | 132 | 0.0 | 2.0 | 0.00 | 0.00 | 0.00 | 91 | 1016.4 |
| 20260510110503 | 73 | 132 | 0.0 | 1.0 | 0.00 | 0.00 | 0.00 | 91 | 1016.4 |
| 20260510110004 | 73 | 132 | 0.0 | 1.0 | 0.00 | 0.00 | 0.00 | 90 | 1016.3 |
| 20260510105503 | 73 | 132 | 0.0 | 0.0 | 0.00 | 0.00 | 0.00 | 90 | 1016.1 |
| 20260510105003 | 73 | 132 | 0.0 | 0.0 | 0.00 | 0.00 | 0.00 | 90 | 1016.0 |
| 20260510104504 | 73 | 132 | 0.0 | 0.0 | 0.00 | 0.00 | 0.00 | 90 | 1016.0 |
| 20260510104003 | 73 | 132 | 0.0 | 0.0 | 0.00 | 0.00 | 0.00 | 90 | 1015.9 |
| 20260510103504 | 73 | 132 | 0.0 | 0.0 | 0.00 | 0.00 | 0.00 | 90 | 1015.9 |
| 20260510103004 | 73 | 132 | 0.0 | 0.0 | 0.00 | 0.00 | 0.00 | 90 | 1015.9 |
| 20260510102503 | 73 | 132 | 0.0 | 0.0 | 0.00 | 0.00 | 0.00 | 90 | 1015.9 |
| 20260510102003 | 73 | 132 | 0.0 | 0.0 | 0.00 | 0.00 | 0.00 | 90 | 1015.8 |
| 20260510101504 | 73 | 132 | 0.0 | 0.0 | 0.00 | 0.00 | 0.00 | 90 | 1015.6 |
| 20260510101003 | 74 | 132 | 0.0 | 0.0 | 0.00 | 0.00 | 0.00 | 90 | 1015.4 |
| 20260510100503 | 74 | 132 | 0.0 | 0.0 | 0.00 | 0.00 | 0.00 | 90 | 1015.3 |
| 20260510100004 | 74 | 132 | 0.0 | 0.0 | 0.00 | 0.00 | 0.00 | 90 | 1015.2 |
| 20260510095503 | 74 | 132 | 0.0 | 0.0 | 0.00 | 0.00 | 0.00 | 89 | 1015.2 |
| 20260510095003 | 74 | 132 | 0.0 | 0.0 | 0.00 | 0.00 | 0.00 | 89 | 1015.2 |
| 20260510094504 | 74 | 132 | 0.0 | 0.0 | 0.00 | 0.00 | 0.00 | 89 | 1015.1 |
| 20260510094003 | 74 | 132 | 0.0 | 0.0 | 0.00 | 0.00 | 0.00 | 89 | 1015.4 |
| 20260510093503 | 74 | 132 | 0.0 | 0.0 | 0.00 | 0.00 | 0.00 | 89 | 1015.4 |
| 20260510093004 | 74 | 132 | 0.0 | 0.0 | 0.00 | 0.00 | 0.00 | 89 | 1015.1 |
| 20260510092503 | 74 | 132 | 0.0 | 0.0 | 0.00 | 0.00 | 0.00 | 89 | 1015.1 |
| 20260510092003 | 74 | 132 | 0.0 | 0.0 | 0.00 | 0.00 | 0.00 | 89 | 1015.0 |
| 20260510091504 | 75 | 132 | 0.0 | 0.0 | 0.00 | 0.00 | 0.00 | 89 | 1014.9 |
| 20260510091003 | 75 | 132 | 0.0 | 0.0 | 0.00 | 0.00 | 0.00 | 89 | 1014.9 |
| 20260510090503 | 75 | 132 | 0.0 | 0.0 | 0.00 | 0.00 | 0.00 | 89 | 1014.8 |
| 20260510090004 | 75 | 132 | 0.0 | 0.0 | 0.00 | 0.00 | 0.00 | 89 | 1014.7 |
| 20260510085503 | 75 | 132 | 0.0 | 1.0 | 0.00 | 0.00 | 0.00 | 89 | 1014.6 |
| 20260510085003 | 75 | 132 | 0.0 | 0.0 | 0.00 | 0.00 | 0.00 | 89 | 1014.6 |
| 20260510084504 | 75 | 132 | 0.0 | 0.0 | 0.00 | 0.00 | 0.00 | 89 | 1014.6 |
| 20260510084004 | 75 | 132 | 0.0 | 0.0 | 0.00 | 0.00 | 0.00 | 89 | 1014.5 |
| 20260510083503 | 75 | 132 | 0.0 | 1.0 | 0.00 | 0.00 | 0.00 | 89 | 1014.4 |
| 20260510083004 | 75 | 132 | 0.0 | 1.0 | 0.00 | 0.00 | 0.00 | 89 | 1014.4 |
| 20260510082503 | 76 | 132 | 0.0 | 2.0 | 0.00 | 0.00 | 0.00 | 89 | 1014.4 |
| 20260510082004 | 76 | 132 | 0.0 | 2.0 | 0.00 | 0.00 | 0.00 | 89 | 1014.5 |
| 20260510081503 | 76 | 132 | 0.0 | 3.0 | 0.00 | 0.00 | 0.00 | 89 | 1014.5 |
| 20260510081003 | 76 | 132 | 0.0 | 2.0 | 0.00 | 0.00 | 0.00 | 89 | 1014.6 |
| 20260510080503 | 76 | 132 | 0.0 | 1.0 | 0.00 | 0.00 | 0.00 | 89 | 1014.5 |
| 20260510080004 | 76 | 131 | 1.0 | 3.0 | 0.00 | 0.00 | 0.00 | 89 | 1014.5 |
| 20260510075503 | 76 | 133 | 0.0 | 2.0 | 0.00 | 0.00 | 0.00 | 89 | 1014.5 |
| 20260510075003 | 76 | 125 | 1.0 | 2.0 | 0.00 | 0.00 | 0.00 | 89 | 1014.5 |
| 20260510074503 | 76 | 125 | 0.0 | 2.0 | 0.00 | 0.00 | 0.00 | 89 | 1014.6 |
| 20260510074003 | 76 | 125 | 1.0 | 3.0 | 0.00 | 0.00 | 0.00 | 89 | 1014.6 |
| 20260510073503 | 76 | 121 | 1.0 | 2.0 | 0.00 | 0.00 | 0.00 | 90 | 1014.7 |
| 20260510073004 | 76 | 126 | 0.0 | 0.0 | 0.00 | 0.00 | 0.00 | 90 | 1014.7 |
| 20260510072503 | 77 | 130 | 0.0 | 3.0 | 0.00 | 0.00 | 0.00 | 89 | 1014.8 |
| 20260510072003 | 77 | 131 | 0.0 | 0.0 | 0.00 | 0.00 | 0.00 | 89 | 1014.8 |
| 20260510071504 | 77 | 131 | 0.0 | 0.0 | 0.00 | 0.00 | 0.00 | 89 | 1014.9 |
| 20260510071003 | 77 | 131 | 0.0 | 0.0 | 0.00 | 0.00 | 0.00 | 89 | 1015.0 |
| 20260510070504 | 77 | 131 | 0.0 | 0.0 | 0.00 | 0.00 | 0.00 | 89 | 1014.9 |
| 20260510070004 | 77 | 131 | 0.0 | 0.0 | 0.00 | 0.00 | 0.00 | 89 | 1014.9 |
| 20260510065504 | 77 | 131 | 0.0 | 0.0 | 0.00 | 0.00 | 0.00 | 89 | 1015.0 |
| 20260510065003 | 77 | 131 | 0.0 | 0.0 | 0.00 | 0.00 | 0.00 | 89 | 1015.1 |
| 20260510064504 | 77 | 131 | 0.0 | 0.0 | 0.00 | 0.00 | 0.00 | 89 | 1015.2 |
| 20260510064003 | 77 | 131 | 0.0 | 0.0 | 0.00 | 0.00 | 0.00 | 89 | 1015.3 |
| 20260510063503 | 77 | 131 | 0.0 | 1.0 | 0.00 | 0.00 | 0.00 | 89 | 1015.3 |
| 20260510063004 | 77 | 118 | 1.0 | 5.0 | 0.00 | 0.00 | 0.00 | 89 | 1015.2 |
| 20260510062504 | 77 | 131 | 1.0 | 3.0 | 0.00 | 0.00 | 0.00 | 89 | 1015.3 |
| 20260510062003 | 77 | 146 | 0.0 | 2.0 | 0.00 | 0.00 | 0.00 | 89 | 1015.4 |
| 20260510061504 | 77 | 146 | 1.0 | 2.0 | 0.00 | 0.00 | 0.00 | 89 | 1015.4 |
| 20260510061003 | 77 | 147 | 0.0 | 0.0 | 0.00 | 0.00 | 0.00 | 89 | 1015.5 |
| 20260510060504 | 77 | 149 | 0.0 | 0.0 | 0.00 | 0.00 | 0.00 | 89 | 1015.6 |
| 20260510060004 | 77 | 149 | 0.0 | 0.0 | 0.00 | 0.00 | 0.00 | 89 | 1015.7 |
| 20260510055504 | 77 | 149 | 0.0 | 0.0 | 0.00 | 0.00 | 0.00 | 89 | 1015.7 |
| 20260510055004 | 77 | 149 | 0.0 | 0.0 | 0.00 | 0.00 | 0.00 | 89 | 1015.8 |
| 20260510054503 | 77 | 149 | 0.0 | 0.0 | 0.00 | 0.00 | 0.00 | 89 | 1015.9 |
| 20260510054004 | 77 | 149 | 0.0 | 0.0 | 0.00 | 0.00 | 0.00 | 89 | 1015.9 |
| 20260510053504 | 77 | 149 | 0.0 | 0.0 | 0.00 | 0.00 | 0.00 | 89 | 1016.0 |
| 20260510053003 | 77 | 149 | 0.0 | 0.0 | 0.00 | 0.00 | 0.00 | 89 | 1016.0 |
| 20260510052504 | 77 | 149 | 0.0 | 0.0 | 0.00 | 0.00 | 0.00 | 89 | 1016.1 |
| 20260510052004 | 76 | 149 | 0.0 | 0.0 | 0.00 | 0.00 | 0.00 | 89 | 1016.1 |
| 20260510051503 | 76 | 149 | 0.0 | 0.0 | 0.00 | 0.00 | 0.00 | 89 | 1016.1 |
| 20260510051004 | 76 | 149 | 0.0 | 0.0 | 0.00 | 0.00 | 0.00 | 89 | 1016.2 |
| 20260510050504 | 76 | 149 | 0.0 | 0.0 | 0.00 | 0.00 | 0.00 | 89 | 1016.2 |
| 20260510050004 | 77 | 149 | 0.0 | 0.0 | 0.00 | 0.00 | 0.00 | 89 | 1016.2 |
| 20260510045503 | 77 | 149 | 0.0 | 0.0 | 0.00 | 0.00 | 0.00 | 89 | 1016.3 |
| 20260510045005 | 77 | 232 | 0.0 | 0.0 | 0.00 | 0.00 | 0.00 | 89 | 1016.2 |
| 20260510044503 | 77 | 232 | 0.0 | 0.0 | 0.00 | 0.00 | 0.00 | 89 | 1016.3 |
| 20260510044003 | 77 | 232 | 0.0 | 0.0 | 0.00 | 0.00 | 0.00 | 89 | 1016.5 |
| 20260510043503 | 77 | 255 | 0.0 | 0.0 | 0.00 | 0.00 | 0.00 | 89 | 1016.5 |
| 20260510043004 | 77 | 259 | 0.0 | 0.0 | 0.00 | 0.00 | 0.00 | 89 | 1016.5 |
| 20260510042503 | 77 | 259 | 0.0 | 0.0 | 0.00 | 0.00 | 0.00 | 89 | 1016.4 |
| 20260510042004 | 77 | 259 | 0.0 | 0.0 | 0.00 | 0.00 | 0.00 | 89 | 1016.4 |
| 20260510041503 | 77 | 259 | 0.0 | 0.0 | 0.00 | 0.00 | 0.00 | 89 | 1016.5 |
| 20260510041003 | 77 | 259 | 0.0 | 0.0 | 0.00 | 0.00 | 0.00 | 89 | 1016.5 |
| 20260510040503 | 77 | 259 | 0.0 | 0.0 | 0.00 | 0.00 | 0.00 | 89 | 1016.5 |
| 20260510040004 | 77 | 259 | 0.0 | 0.0 | 0.00 | 0.00 | 0.00 | 89 | 1016.4 |
| 20260510035503 | 77 | 259 | 0.0 | 0.0 | 0.00 | 0.00 | 0.00 | 88 | 1016.4 |
| 20260510035003 | 77 | 259 | 0.0 | 0.0 | 0.00 | 0.00 | 0.00 | 88 | 1016.3 |
| 20260510034504 | 77 | 259 | 0.0 | 0.0 | 0.00 | 0.00 | 0.00 | 88 | 1016.3 |
| 20260510034003 | 77 | 259 | 0.0 | 0.0 | 0.00 | 0.00 | 0.00 | 88 | 1016.3 |
| 20260510033504 | 77 | 259 | 0.0 | 0.0 | 0.00 | 0.00 | 0.00 | 88 | 1016.3 |
| 20260510033004 | 77 | 259 | 0.0 | 0.0 | 0.00 | 0.00 | 0.00 | 88 | 1016.3 |
| 20260510032504 | 77 | 259 | 0.0 | 0.0 | 0.00 | 0.00 | 0.00 | 88 | 1016.2 |
| 20260510032003 | 77 | 259 | 0.0 | 0.0 | 0.00 | 0.00 | 0.00 | 89 | 1016.2 |
| 20260510031504 | 78 | 259 | 0.0 | 0.0 | 0.00 | 0.00 | 0.00 | 88 | 1016.3 |
| 20260510031003 | 78 | 259 | 0.0 | 0.0 | 0.00 | 0.00 | 0.00 | 88 | 1016.2 |
| 20260510030504 | 78 | 259 | 0.0 | 0.0 | 0.00 | 0.00 | 0.00 | 88 | 1016.0 |
| 20260510030003 | 78 | 259 | 0.0 | 0.0 | 0.00 | 0.00 | 0.00 | 88 | 1015.8 |
| 20260510025504 | 78 | 259 | 0.0 | 0.0 | 0.00 | 0.00 | 0.00 | 88 | 1015.9 |
| 20260510025004 | 78 | 259 | 0.0 | 0.0 | 0.00 | 0.00 | 0.00 | 88 | 1015.8 |
| 20260510024503 | 78 | 259 | 0.0 | 0.0 | 0.00 | 0.00 | 0.00 | 88 | 1015.8 |
| 20260510024004 | 78 | 259 | 0.0 | 0.0 | 0.00 | 0.00 | 0.00 | 87 | 1015.9 |
| 20260510023504 | 78 | 259 | 0.0 | 0.0 | 0.00 | 0.00 | 0.00 | 87 | 1015.8 |
| 20260510023003 | 78 | 259 | 0.0 | 0.0 | 0.00 | 0.00 | 0.00 | 87 | 1015.8 |
| 20260510022503 | 78 | 259 | 0.0 | 0.0 | 0.00 | 0.00 | 0.00 | 87 | 1015.8 |
| 20260510022004 | 78 | 259 | 0.0 | 0.0 | 0.00 | 0.00 | 0.00 | 87 | 1015.9 |
| 20260510021503 | 78 | 259 | 0.0 | 0.0 | 0.00 | 0.00 | 0.00 | 87 | 1015.8 |
| 20260510021004 | 78 | 259 | 0.0 | 0.0 | 0.00 | 0.00 | 0.00 | 87 | 1015.9 |
| 20260510020503 | 78 | 259 | 0.0 | 0.0 | 0.00 | 0.00 | 0.00 | 87 | 1015.9 |
| 20260510020004 | 78 | 259 | 0.0 | 0.0 | 0.00 | 0.00 | 0.00 | 87 | 1016.0 |
| 20260510015503 | 78 | 259 | 0.0 | 0.0 | 0.00 | 0.00 | 0.00 | 87 | 1016.0 |
| 20260510015003 | 78 | 259 | 0.0 | 0.0 | 0.00 | 0.00 | 0.00 | 86 | 1015.9 |
| 20260510014504 | 78 | 259 | 0.0 | 1.0 | 0.00 | 0.00 | 0.00 | 86 | 1015.8 |
| 20260510014003 | 78 | 259 | 0.0 | 0.0 | 0.00 | 0.00 | 0.00 | 86 | 1015.9 |
| 20260510013504 | 78 | 259 | 0.0 | 0.0 | 0.00 | 0.00 | 0.00 | 86 | 1015.8 |
| 20260510013003 | 78 | 259 | 0.0 | 0.0 | 0.00 | 0.00 | 0.00 | 86 | 1015.6 |
| 20260510012503 | 78 | 259 | 0.0 | 0.0 | 0.00 | 0.00 | 0.00 | 86 | 1015.5 |
| 20260510012005 | 78 | 259 | 0.0 | 0.0 | 0.00 | 0.00 | 0.00 | 85 | 1015.4 |
| 20260510011504 | 78 | 259 | 0.0 | 0.0 | 0.00 | 0.00 | 0.00 | 85 | 1015.4 |
| 20260510011004 | 79 | 259 | 0.0 | 0.0 | 0.00 | 0.00 | 0.00 | 85 | 1015.3 |
| 20260510010504 | 79 | 259 | 0.0 | 0.0 | 0.00 | 0.00 | 0.00 | 85 | 1015.2 |
| 20260510010004 | 79 | 259 | 0.0 | 0.0 | 0.00 | 0.00 | 0.00 | 85 | 1015.1 |
| 20260510005504 | 79 | 259 | 0.0 | 0.0 | 0.00 | 0.00 | 0.00 | 85 | 1015.1 |
| 20260510005004 | 79 | 259 | 0.0 | 0.0 | 0.00 | 0.00 | 0.00 | 84 | 1015.1 |
| 20260510004504 | 79 | 259 | 0.0 | 0.0 | 0.00 | 0.00 | 0.00 | 84 | 1015.1 |
| 20260510004003 | 79 | 259 | 0.0 | 0.0 | 0.00 | 0.00 | 0.00 | 84 | 1015.0 |
| 20260510003503 | 79 | 259 | 0.0 | 0.0 | 0.00 | 0.00 | 0.00 | 83 | 1015.1 |
| 20260510003004 | 79 | 259 | 0.0 | 0.0 | 0.00 | 0.00 | 0.00 | 83 | 1015.0 |
| 20260510002503 | 79 | 259 | 0.0 | 0.0 | 0.00 | 0.00 | 0.00 | 83 | 1015.0 |
| 20260510002004 | 80 | 259 | 0.0 | 2.0 | 0.00 | 0.00 | 0.00 | 83 | 1015.1 |
| 20260510001503 | 80 | 259 | 0.0 | 2.0 | 0.00 | 0.00 | 0.00 | 82 | 1015.0 |
| 20260510001003 | 80 | 267 | 0.0 | 2.0 | 0.00 | 0.00 | 0.00 | 81 | 1014.7 |
| 20260510000503 | 80 | 273 | 0.0 | 1.0 | 0.00 | 0.00 | 0.00 | 81 | 1014.7 |
| 20260510000004 | 80 | 259 | 0.0 | 1.0 | 0.00 | 0.00 | 0.00 | 79 | 1014.6 |
| 20260509235503 | 81 | 257 | 0.0 | 1.0 | 0.00 | 0.00 | 0.00 | 78 | 1014.6 |
| 20260509235004 | 81 | 257 | 0.0 | 3.0 | 0.00 | 0.00 | 0.00 | 76 | 1014.5 |
| 20260509234503 | 81 | 259 | 1.0 | 3.0 | 0.00 | 0.00 | 0.00 | 75 | 1014.4 |
| 20260509234003 | 82 | 252 | 1.0 | 9.0 | 0.00 | 0.00 | 0.00 | 73 | 1014.3 |
| 20260509233503 | 82 | 256 | 2.0 | 6.0 | 0.00 | 0.00 | 0.00 | 74 | 1014.4 |
| 20260509233004 | 82 | 276 | 1.0 | 5.0 | 0.00 | 0.00 | 0.00 | 73 | 1014.4 |
| 20260509232504 | 83 | 258 | 1.0 | 5.0 | 0.00 | 0.00 | 0.00 | 72 | 1014.4 |
| 20260509232003 | 83 | 272 | 2.0 | 3.0 | 0.00 | 0.00 | 0.00 | 72 | 1014.4 |
| 20260509231504 | 83 | 211 | 2.0 | 3.0 | 0.00 | 0.00 | 0.00 | 71 | 1014.3 |
| 20260509231003 | 83 | 258 | 1.0 | 3.0 | 0.00 | 0.00 | 0.00 | 71 | 1014.3 |
| 20260509230504 | 83 | 258 | 1.0 | 3.0 | 0.00 | 0.00 | 0.00 | 70 | 1014.1 |
| 20260509230004 | 83 | 237 | 0.0 | 3.0 | 0.00 | 0.00 | 0.00 | 70 | 1014.1 |
| 20260509225503 | 83 | 238 | 2.0 | 3.0 | 0.00 | 0.00 | 0.00 | 69 | 1014.1 |
| 20260509225003 | 83 | 208 | 2.0 | 3.0 | 0.00 | 0.00 | 0.00 | 68 | 1014.0 |
| 20260509224504 | 83 | 277 | 1.0 | 9.0 | 0.00 | 0.00 | 0.00 | 68 | 1014.0 |
| 20260509224004 | 84 | 261 | 3.0 | 10.0 | 0.00 | 0.00 | 0.00 | 67 | 1014.0 |
| 20260509223503 | 84 | 245 | 2.0 | 6.0 | 0.00 | 0.00 | 0.00 | 65 | 1014.0 |
| 20260509223004 | 84 | 276 | 1.0 | 5.0 | 0.00 | 0.00 | 0.00 | 65 | 1014.0 |
| 20260509222503 | 84 | 269 | 1.0 | 8.0 | 0.00 | 0.00 | 0.00 | 64 | 1013.9 |
| 20260509222003 | 85 | 227 | 1.0 | 3.0 | 0.00 | 0.00 | 0.00 | 64 | 1013.8 |
| 20260509221503 | 85 | 239 | 2.0 | 6.0 | 0.00 | 0.00 | 0.00 | 63 | 1013.7 |
| 20260509221004 | 85 | 272 | 5.0 | 8.0 | 0.00 | 0.00 | 0.00 | 62 | 1013.8 |
| 20260509220503 | 85 | 248 | 1.0 | 6.0 | 0.00 | 0.00 | 0.00 | 61 | 1013.8 |
| 20260509220004 | 86 | 251 | 0.0 | 3.0 | 0.00 | 0.00 | 0.00 | 61 | 1013.7 |
| 20260509215504 | 86 | 267 | 3.0 | 9.0 | 0.00 | 0.00 | 0.00 | 60 | 1013.7 |
| 20260509215003 | 86 | 224 | 0.0 | 3.0 | 0.00 | 0.00 | 0.00 | 59 | 1013.7 |
| 20260509214504 | 86 | 217 | 0.0 | 7.0 | 0.00 | 0.00 | 0.00 | 58 | 1013.6 |
| 20260509214003 | 86 | 198 | 2.0 | 8.0 | 0.00 | 0.00 | 0.00 | 58 | 1013.6 |
| 20260509213503 | 86 | 154 | 1.0 | 3.0 | 0.00 | 0.00 | 0.00 | 58 | 1013.5 |
| 20260509213003 | 86 | 244 | 1.0 | 3.0 | 0.00 | 0.00 | 0.00 | 57 | 1013.5 |
| 20260509212503 | 86 | 228 | 4.0 | 9.0 | 0.00 | 0.00 | 0.00 | 56 | 1013.5 |
| 20260509212003 | 87 | 237 | 2.0 | 7.0 | 0.00 | 0.00 | 0.00 | 53 | 1013.5 |
| 20260509211504 | 87 | 235 | 2.0 | 7.0 | 0.00 | 0.00 | 0.00 | 51 | 1013.5 |
| 20260509211003 | 88 | 255 | 6.0 | 10.0 | 0.00 | 0.00 | 0.00 | 50 | 1013.4 |
| 20260509210503 | 89 | 208 | 3.0 | 10.0 | 0.00 | 0.00 | 0.00 | 51 | 1013.4 |
| 20260509210003 | 89 | 206 | 2.0 | 10.0 | 0.00 | 0.00 | 0.00 | 50 | 1013.3 |
| 20260509205503 | 89 | 254 | 1.0 | 7.0 | 0.00 | 0.00 | 0.00 | 51 | 1013.3 |
| 20260509205003 | 89 | 231 | 3.0 | 12.0 | 0.00 | 0.00 | 0.00 | 50 | 1013.3 |